sensor_id;sensor_type;location;lat;lon;timestamp;temperature;humidity
29775;DHT22;16676;51.202;6.774;2024-01-30T00:01:37;20.30;66.90
29775;DHT22;16676;51.202;6.774;2024-01-30T00:05:39;20.20;66.80
29775;DHT22;16676;51.202;6.774;2024-01-30T00:09:41;20.20;66.90
29775;DHT22;16676;51.202;6.774;2024-01-30T00:13:44;20.20;67.10
29775;DHT22;16676;51.202;6.774;2024-01-30T00:17:46;20.20;67.20
29775;DHT22;16676;51.202;6.774;2024-01-30T00:21:48;20.10;67.10
29775;DHT22;16676;51.202;6.774;2024-01-30T00:25:50;20.10;67.30
29775;DHT22;16676;51.202;6.774;2024-01-30T00:29:53;20.10;67.20
29775;DHT22;16676;51.202;6.774;2024-01-30T00:33:55;20.10;67.00
29775;DHT22;16676;51.202;6.774;2024-01-30T00:37:57;20.10;67.30
29775;DHT22;16676;51.202;6.774;2024-01-30T00:41:59;20.00;67.20
29775;DHT22;16676;51.202;6.774;2024-01-30T00:46:02;20.00;67.40
29775;DHT22;16676;51.202;6.774;2024-01-30T00:50:05;20.00;67.40
29775;DHT22;16676;51.202;6.774;2024-01-30T00:54:07;20.00;67.30
29775;DHT22;16676;51.202;6.774;2024-01-30T00:58:09;20.00;67.40
29775;DHT22;16676;51.202;6.774;2024-01-30T01:02:13;19.90;67.40
29775;DHT22;16676;51.202;6.774;2024-01-30T01:06:15;19.90;67.40
29775;DHT22;16676;51.202;6.774;2024-01-30T01:10:17;19.90;67.50
29775;DHT22;16676;51.202;6.774;2024-01-30T01:14:20;19.90;67.40
29775;DHT22;16676;51.202;6.774;2024-01-30T01:18:23;19.90;67.50
29775;DHT22;16676;51.202;6.774;2024-01-30T01:22:25;19.90;67.40
29775;DHT22;16676;51.202;6.774;2024-01-30T01:26:27;19.90;67.50
29775;DHT22;16676;51.202;6.774;2024-01-30T01:30:29;19.80;67.50
29775;DHT22;16676;51.202;6.774;2024-01-30T01:34:32;19.80;67.40
29775;DHT22;16676;51.202;6.774;2024-01-30T01:38:34;19.80;67.50
29775;DHT22;16676;51.202;6.774;2024-01-30T01:42:36;19.80;67.50
29775;DHT22;16676;51.202;6.774;2024-01-30T01:46:38;19.80;67.70
29775;DHT22;16676;51.202;6.774;2024-01-30T01:50:42;19.80;67.60
29775;DHT22;16676;51.202;6.774;2024-01-30T01:54:45;19.70;67.60
29775;DHT22;16676;51.202;6.774;2024-01-30T01:58:48;19.70;67.70
29775;DHT22;16676;51.202;6.774;2024-01-30T02:02:52;19.70;67.50
29775;DHT22;16676;51.202;6.774;2024-01-30T02:06:56;19.70;67.70
29775;DHT22;16676;51.202;6.774;2024-01-30T02:10:58;19.70;67.60
29775;DHT22;16676;51.202;6.774;2024-01-30T02:15:00;19.70;67.60
29775;DHT22;16676;51.202;6.774;2024-01-30T02:19:02;19.70;67.70
29775;DHT22;16676;51.202;6.774;2024-01-30T02:23:07;19.70;67.80
29775;DHT22;16676;51.202;6.774;2024-01-30T02:27:10;19.60;67.70
29775;DHT22;16676;51.202;6.774;2024-01-30T02:31:12;19.60;67.80
29775;DHT22;16676;51.202;6.774;2024-01-30T02:35:14;19.60;67.80
29775;DHT22;16676;51.202;6.774;2024-01-30T02:39:18;19.60;67.60
29775;DHT22;16676;51.202;6.774;2024-01-30T02:43:20;19.60;67.70
29775;DHT22;16676;51.202;6.774;2024-01-30T02:47:22;19.60;67.60
29775;DHT22;16676;51.202;6.774;2024-01-30T02:51:24;19.60;67.80
29775;DHT22;16676;51.202;6.774;2024-01-30T02:55:27;19.60;67.70
29775;DHT22;16676;51.202;6.774;2024-01-30T02:59:29;19.50;67.90
29775;DHT22;16676;51.202;6.774;2024-01-30T03:03:33;19.50;67.80
29775;DHT22;16676;51.202;6.774;2024-01-30T03:07:36;19.50;67.60
29775;DHT22;16676;51.202;6.774;2024-01-30T03:11:39;19.40;67.80
29775;DHT22;16676;51.202;6.774;2024-01-30T03:15:41;19.50;67.80
29775;DHT22;16676;51.202;6.774;2024-01-30T03:19:43;19.50;67.70
29775;DHT22;16676;51.202;6.774;2024-01-30T03:23:45;19.40;67.70
29775;DHT22;16676;51.202;6.774;2024-01-30T03:27:48;19.40;67.80
29775;DHT22;16676;51.202;6.774;2024-01-30T03:31:50;19.40;67.80
29775;DHT22;16676;51.202;6.774;2024-01-30T03:35:52;19.40;67.70
29775;DHT22;16676;51.202;6.774;2024-01-30T03:39:54;19.40;67.70
29775;DHT22;16676;51.202;6.774;2024-01-30T03:43:58;19.30;67.60
29775;DHT22;16676;51.202;6.774;2024-01-30T03:48:00;19.40;67.70
29775;DHT22;16676;51.202;6.774;2024-01-30T03:52:02;19.40;67.60
29775;DHT22;16676;51.202;6.774;2024-01-30T03:56:04;19.30;68.40
29775;DHT22;16676;51.202;6.774;2024-01-30T04:00:09;19.30;67.50
29775;DHT22;16676;51.202;6.774;2024-01-30T04:04:11;19.30;67.60
29775;DHT22;16676;51.202;6.774;2024-01-30T04:08:13;19.30;67.70
29775;DHT22;16676;51.202;6.774;2024-01-30T04:12:15;19.30;67.50
29775;DHT22;16676;51.202;6.774;2024-01-30T04:16:21;19.30;67.50
29775;DHT22;16676;51.202;6.774;2024-01-30T04:20:24;19.30;67.50
29775;DHT22;16676;51.202;6.774;2024-01-30T04:24:26;19.30;67.50
29775;DHT22;16676;51.202;6.774;2024-01-30T04:28:28;19.20;67.50
29775;DHT22;16676;51.202;6.774;2024-01-30T04:32:32;19.20;67.40
29775;DHT22;16676;51.202;6.774;2024-01-30T04:36:34;19.20;67.30
29775;DHT22;16676;51.202;6.774;2024-01-30T04:40:36;19.30;66.80
29775;DHT22;16676;51.202;6.774;2024-01-30T04:44:38;19.30;66.80
29775;DHT22;16676;51.202;6.774;2024-01-30T04:48:41;19.20;67.00
29775;DHT22;16676;51.202;6.774;2024-01-30T04:52:43;19.30;67.70
29775;DHT22;16676;51.202;6.774;2024-01-30T04:56:45;19.30;67.10
29775;DHT22;16676;51.202;6.774;2024-01-30T05:00:47;19.30;67.20
29775;DHT22;16676;51.202;6.774;2024-01-30T05:04:53;19.50;66.90
29775;DHT22;16676;51.202;6.774;2024-01-30T05:08:55;19.60;67.10
29775;DHT22;16676;51.202;6.774;2024-01-30T05:12:57;19.80;67.50
29775;DHT22;16676;51.202;6.774;2024-01-30T05:16:59;20.00;66.40
29775;DHT22;16676;51.202;6.774;2024-01-30T05:21:02;20.10;66.20
29775;DHT22;16676;51.202;6.774;2024-01-30T05:25:05;20.10;65.90
29775;DHT22;16676;51.202;6.774;2024-01-30T05:29:07;20.20;65.60
29775;DHT22;16676;51.202;6.774;2024-01-30T05:33:09;20.30;65.50
29775;DHT22;16676;51.202;6.774;2024-01-30T05:37:14;20.30;65.20
29775;DHT22;16676;51.202;6.774;2024-01-30T05:41:17;20.30;65.30
29775;DHT22;16676;51.202;6.774;2024-01-30T05:45:19;20.30;65.20
29775;DHT22;16676;51.202;6.774;2024-01-30T05:49:23;20.30;65.00
29775;DHT22;16676;51.202;6.774;2024-01-30T05:53:26;20.30;65.30
29775;DHT22;16676;51.202;6.774;2024-01-30T05:57:28;20.30;65.20
29775;DHT22;16676;51.202;6.774;2024-01-30T06:01:30;20.30;65.40
29775;DHT22;16676;51.202;6.774;2024-01-30T06:05:32;20.40;65.20
29775;DHT22;16676;51.202;6.774;2024-01-30T06:09:35;20.30;65.30
29775;DHT22;16676;51.202;6.774;2024-01-30T06:13:37;20.40;65.10
29775;DHT22;16676;51.202;6.774;2024-01-30T06:17:39;20.40;65.10
29775;DHT22;16676;51.202;6.774;2024-01-30T06:21:41;20.40;65.10
29775;DHT22;16676;51.202;6.774;2024-01-30T06:25:44;20.30;65.20
29775;DHT22;16676;51.202;6.774;2024-01-30T06:29:46;20.30;65.30
29775;DHT22;16676;51.202;6.774;2024-01-30T06:33:48;20.30;64.80
29775;DHT22;16676;51.202;6.774;2024-01-30T06:37:50;20.30;65.00
29775;DHT22;16676;51.202;6.774;2024-01-30T06:41:54;20.40;65.50
29775;DHT22;16676;51.202;6.774;2024-01-30T06:45:56;20.30;64.90
29775;DHT22;16676;51.202;6.774;2024-01-30T06:49:58;20.30;64.90
29775;DHT22;16676;51.202;6.774;2024-01-30T06:54:00;20.30;65.00
29775;DHT22;16676;51.202;6.774;2024-01-30T06:58:04;20.30;65.20
29775;DHT22;16676;51.202;6.774;2024-01-30T07:02:05;20.30;65.30
29775;DHT22;16676;51.202;6.774;2024-01-30T07:06:08;20.30;65.00
29775;DHT22;16676;51.202;6.774;2024-01-30T07:10:11;20.20;64.70
29775;DHT22;16676;51.202;6.774;2024-01-30T07:14:15;20.20;64.50
29775;DHT22;16676;51.202;6.774;2024-01-30T07:18:16;20.20;65.10
29775;DHT22;16676;51.202;6.774;2024-01-30T07:22:18;20.20;64.70
29775;DHT22;16676;51.202;6.774;2024-01-30T07:26:20;20.20;64.60
29775;DHT22;16676;51.202;6.774;2024-01-30T07:30:24;19.70;56.30
29775;DHT22;16676;51.202;6.774;2024-01-30T07:34:25;18.30;55.40
29775;DHT22;16676;51.202;6.774;2024-01-30T07:38:29;17.60;56.90
29775;DHT22;16676;51.202;6.774;2024-01-30T07:42:33;17.10;57.70
29775;DHT22;16676;51.202;6.774;2024-01-30T07:46:37;17.00;58.50
29775;DHT22;16676;51.202;6.774;2024-01-30T07:50:39;17.60;59.70
29775;DHT22;16676;51.202;6.774;2024-01-30T07:54:41;18.20;58.70
29775;DHT22;16676;51.202;6.774;2024-01-30T07:58:43;18.90;58.40
29775;DHT22;16676;51.202;6.774;2024-01-30T08:02:47;19.40;58.00
29775;DHT22;16676;51.202;6.774;2024-01-30T08:06:49;19.80;57.90
29775;DHT22;16676;51.202;6.774;2024-01-30T08:10:50;20.10;57.90
29775;DHT22;16676;51.202;6.774;2024-01-30T08:14:52;20.40;57.90
29775;DHT22;16676;51.202;6.774;2024-01-30T08:18:56;20.70;57.80
29775;DHT22;16676;51.202;6.774;2024-01-30T08:22:58;20.90;57.90
29775;DHT22;16676;51.202;6.774;2024-01-30T08:27:01;21.10;57.90
29775;DHT22;16676;51.202;6.774;2024-01-30T08:31:03;21.20;57.80
29775;DHT22;16676;51.202;6.774;2024-01-30T08:35:07;21.40;58.00
29775;DHT22;16676;51.202;6.774;2024-01-30T08:39:09;21.50;58.10
29775;DHT22;16676;51.202;6.774;2024-01-30T08:43:11;21.50;58.00
29775;DHT22;16676;51.202;6.774;2024-01-30T08:47:13;21.60;58.30
29775;DHT22;16676;51.202;6.774;2024-01-30T08:51:18;21.70;58.30
29775;DHT22;16676;51.202;6.774;2024-01-30T08:55:20;21.80;58.30
29775;DHT22;16676;51.202;6.774;2024-01-30T08:59:22;21.80;58.60
29775;DHT22;16676;51.202;6.774;2024-01-30T09:03:23;21.80;58.60
29775;DHT22;16676;51.202;6.774;2024-01-30T09:07:27;21.90;58.70
29775;DHT22;16676;51.202;6.774;2024-01-30T09:11:29;21.90;58.70
29775;DHT22;16676;51.202;6.774;2024-01-30T09:15:31;21.90;58.70
29775;DHT22;16676;51.202;6.774;2024-01-30T09:19:33;21.90;58.70
29775;DHT22;16676;51.202;6.774;2024-01-30T09:23:36;21.90;58.80
29775;DHT22;16676;51.202;6.774;2024-01-30T09:27:38;21.90;58.90
29775;DHT22;16676;51.202;6.774;2024-01-30T09:31:43;21.90;58.80
29775;DHT22;16676;51.202;6.774;2024-01-30T09:35:45;21.90;58.80
29775;DHT22;16676;51.202;6.774;2024-01-30T09:39:48;21.90;58.90
29775;DHT22;16676;51.202;6.774;2024-01-30T09:43:50;22.00;58.90
29775;DHT22;16676;51.202;6.774;2024-01-30T09:47:53;21.90;59.20
29775;DHT22;16676;51.202;6.774;2024-01-30T09:51:55;21.90;59.20
29775;DHT22;16676;51.202;6.774;2024-01-30T09:55:59;21.90;59.30
29775;DHT22;16676;51.202;6.774;2024-01-30T10:00:03;21.80;59.60
29775;DHT22;16676;51.202;6.774;2024-01-30T10:04:08;21.70;59.80
29775;DHT22;16676;51.202;6.774;2024-01-30T10:08:10;21.70;60.00
29775;DHT22;16676;51.202;6.774;2024-01-30T10:12:13;21.60;60.60
29775;DHT22;16676;51.202;6.774;2024-01-30T10:16:15;21.60;60.60
29775;DHT22;16676;51.202;6.774;2024-01-30T10:20:17;21.50;61.10
29775;DHT22;16676;51.202;6.774;2024-01-30T10:24:24;21.50;61.40
29775;DHT22;16676;51.202;6.774;2024-01-30T10:28:28;21.40;61.60
29775;DHT22;16676;51.202;6.774;2024-01-30T10:32:31;21.40;61.80
29775;DHT22;16676;51.202;6.774;2024-01-30T10:36:39;21.40;62.00
29775;DHT22;16676;51.202;6.774;2024-01-30T10:40:43;21.40;62.20
29775;DHT22;16676;51.202;6.774;2024-01-30T10:44:56;21.30;62.30
29775;DHT22;16676;51.202;6.774;2024-01-30T10:48:58;21.30;62.20
29775;DHT22;16676;51.202;6.774;2024-01-30T10:53:01;21.30;62.30
29775;DHT22;16676;51.202;6.774;2024-01-30T10:57:04;21.40;62.80
29775;DHT22;16676;51.202;6.774;2024-01-30T11:01:09;21.30;62.90
29775;DHT22;16676;51.202;6.774;2024-01-30T11:05:12;21.40;63.00
29775;DHT22;16676;51.202;6.774;2024-01-30T11:09:17;21.40;63.10
29775;DHT22;16676;51.202;6.774;2024-01-30T11:13:19;21.40;63.20
29775;DHT22;16676;51.202;6.774;2024-01-30T11:17:22;21.30;63.10
29775;DHT22;16676;51.202;6.774;2024-01-30T11:21:28;21.40;63.30
29775;DHT22;16676;51.202;6.774;2024-01-30T11:25:31;21.30;63.30
29775;DHT22;16676;51.202;6.774;2024-01-30T11:29:35;21.30;63.30
29775;DHT22;16676;51.202;6.774;2024-01-30T11:33:38;21.30;63.30
29775;DHT22;16676;51.202;6.774;2024-01-30T11:37:40;21.30;63.40
29775;DHT22;16676;51.202;6.774;2024-01-30T11:41:44;21.30;63.50
29775;DHT22;16676;51.202;6.774;2024-01-30T11:45:47;21.30;63.60
29775;DHT22;16676;51.202;6.774;2024-01-30T11:49:51;21.30;63.70
29775;DHT22;16676;51.202;6.774;2024-01-30T11:53:53;21.30;63.80
29775;DHT22;16676;51.202;6.774;2024-01-30T11:57:55;21.30;64.10
29775;DHT22;16676;51.202;6.774;2024-01-30T12:01:57;21.30;64.30
29775;DHT22;16676;51.202;6.774;2024-01-30T12:06:03;21.30;64.40
29775;DHT22;16676;51.202;6.774;2024-01-30T12:10:06;21.30;64.40
29775;DHT22;16676;51.202;6.774;2024-01-30T12:14:10;21.30;64.30
29775;DHT22;16676;51.202;6.774;2024-01-30T12:18:12;21.30;64.40
29775;DHT22;16676;51.202;6.774;2024-01-30T12:22:16;21.30;64.50
29775;DHT22;16676;51.202;6.774;2024-01-30T12:26:18;21.30;64.60
29775;DHT22;16676;51.202;6.774;2024-01-30T12:30:20;21.30;64.50
29775;DHT22;16676;51.202;6.774;2024-01-30T12:34:24;21.30;64.50
29775;DHT22;16676;51.202;6.774;2024-01-30T12:38:28;21.30;64.40
29775;DHT22;16676;51.202;6.774;2024-01-30T12:42:30;21.30;64.50
29775;DHT22;16676;51.202;6.774;2024-01-30T12:46:34;21.20;64.50
29775;DHT22;16676;51.202;6.774;2024-01-30T12:50:36;21.20;64.20
29775;DHT22;16676;51.202;6.774;2024-01-30T12:54:39;21.20;64.30
29775;DHT22;16676;51.202;6.774;2024-01-30T12:58:41;21.10;64.30
29775;DHT22;16676;51.202;6.774;2024-01-30T13:02:44;21.00;64.20
29775;DHT22;16676;51.202;6.774;2024-01-30T13:06:46;21.00;64.30
29775;DHT22;16676;51.202;6.774;2024-01-30T13:10:49;21.00;64.30
29775;DHT22;16676;51.202;6.774;2024-01-30T13:14:51;20.90;64.20
29775;DHT22;16676;51.202;6.774;2024-01-30T13:18:53;20.90;64.30
29775;DHT22;16676;51.202;6.774;2024-01-30T13:22:56;20.90;64.50
29775;DHT22;16676;51.202;6.774;2024-01-30T13:26:59;20.90;64.70
29775;DHT22;16676;51.202;6.774;2024-01-30T13:31:01;21.00;64.60
29775;DHT22;16676;51.202;6.774;2024-01-30T13:35:04;21.00;64.60
29775;DHT22;16676;51.202;6.774;2024-01-30T13:39:06;21.00;64.60
29775;DHT22;16676;51.202;6.774;2024-01-30T13:43:12;21.00;64.70
29775;DHT22;16676;51.202;6.774;2024-01-30T13:47:14;21.00;64.60
29775;DHT22;16676;51.202;6.774;2024-01-30T13:51:16;21.10;64.70
29775;DHT22;16676;51.202;6.774;2024-01-30T13:55:17;21.10;64.80
29775;DHT22;16676;51.202;6.774;2024-01-30T13:59:21;21.10;64.60
29775;DHT22;16676;51.202;6.774;2024-01-30T14:03:25;21.10;64.80
29775;DHT22;16676;51.202;6.774;2024-01-30T14:07:26;21.20;64.90
29775;DHT22;16676;51.202;6.774;2024-01-30T14:11:28;21.10;64.90
29775;DHT22;16676;51.202;6.774;2024-01-30T14:15:32;21.10;64.80
29775;DHT22;16676;51.202;6.774;2024-01-30T14:19:34;21.10;64.90
29775;DHT22;16676;51.202;6.774;2024-01-30T14:23:36;21.20;64.80
29775;DHT22;16676;51.202;6.774;2024-01-30T14:27:39;21.20;65.20
29775;DHT22;16676;51.202;6.774;2024-01-30T14:31:42;21.10;65.00
29775;DHT22;16676;51.202;6.774;2024-01-30T14:35:44;21.20;65.10
29775;DHT22;16676;51.202;6.774;2024-01-30T14:39:46;21.20;64.90
29775;DHT22;16676;51.202;6.774;2024-01-30T14:43:49;21.20;65.20
29775;DHT22;16676;51.202;6.774;2024-01-30T14:47:52;21.20;65.30
29775;DHT22;16676;51.202;6.774;2024-01-30T14:51:56;21.20;65.30
29775;DHT22;16676;51.202;6.774;2024-01-30T14:55:59;21.20;65.30
29775;DHT22;16676;51.202;6.774;2024-01-30T15:00:04;21.20;65.50
29775;DHT22;16676;51.202;6.774;2024-01-30T15:04:07;21.20;65.50
29775;DHT22;16676;51.202;6.774;2024-01-30T15:08:09;21.20;65.60
29775;DHT22;16676;51.202;6.774;2024-01-30T15:12:11;21.20;65.80
29775;DHT22;16676;51.202;6.774;2024-01-30T15:16:14;21.20;65.90
29775;DHT22;16676;51.202;6.774;2024-01-30T15:20:17;21.20;65.90
29775;DHT22;16676;51.202;6.774;2024-01-30T15:24:19;21.20;66.20
29775;DHT22;16676;51.202;6.774;2024-01-30T15:28:34;21.20;66.10
29775;DHT22;16676;51.202;6.774;2024-01-30T15:32:38;21.20;66.10
29775;DHT22;16676;51.202;6.774;2024-01-30T15:36:41;21.20;66.10
29775;DHT22;16676;51.202;6.774;2024-01-30T15:40:43;21.20;66.00
29775;DHT22;16676;51.202;6.774;2024-01-30T15:44:45;21.20;66.80
29775;DHT22;16676;51.202;6.774;2024-01-30T15:48:47;21.20;66.10
29775;DHT22;16676;51.202;6.774;2024-01-30T15:52:50;21.20;66.10
29775;DHT22;16676;51.202;6.774;2024-01-30T15:56:52;21.20;66.20
29775;DHT22;16676;51.202;6.774;2024-01-30T16:00:54;21.20;66.40
29775;DHT22;16676;51.202;6.774;2024-01-30T16:04:56;21.20;66.70
29775;DHT22;16676;51.202;6.774;2024-01-30T16:08:59;21.20;66.40
29775;DHT22;16676;51.202;6.774;2024-01-30T16:13:01;21.20;66.50
29775;DHT22;16676;51.202;6.774;2024-01-30T16:17:03;21.20;67.30
29775;DHT22;16676;51.202;6.774;2024-01-30T16:21:05;21.20;66.50
29775;DHT22;16676;51.202;6.774;2024-01-30T16:25:11;21.20;66.60
29775;DHT22;16676;51.202;6.774;2024-01-30T16:29:15;21.20;66.50
29775;DHT22;16676;51.202;6.774;2024-01-30T16:33:17;21.20;66.60
29775;DHT22;16676;51.202;6.774;2024-01-30T16:37:19;21.20;66.70
29775;DHT22;16676;51.202;6.774;2024-01-30T16:41:22;21.30;66.80
29775;DHT22;16676;51.202;6.774;2024-01-30T16:45:24;21.20;66.70
29775;DHT22;16676;51.202;6.774;2024-01-30T16:49:26;21.30;66.80
29775;DHT22;16676;51.202;6.774;2024-01-30T16:53:28;21.20;66.60
29775;DHT22;16676;51.202;6.774;2024-01-30T16:57:32;21.30;66.70
29775;DHT22;16676;51.202;6.774;2024-01-30T17:01:33;21.20;65.10
29775;DHT22;16676;51.202;6.774;2024-01-30T17:05:35;21.20;63.80
29775;DHT22;16676;51.202;6.774;2024-01-30T17:09:37;21.10;63.70
29775;DHT22;16676;51.202;6.774;2024-01-30T17:13:40;21.10;63.90
29775;DHT22;16676;51.202;6.774;2024-01-30T17:17:42;21.00;63.40
29775;DHT22;16676;51.202;6.774;2024-01-30T17:21:44;20.90;62.60
29775;DHT22;16676;51.202;6.774;2024-01-30T17:25:47;20.70;62.60
29775;DHT22;16676;51.202;6.774;2024-01-30T17:29:51;20.60;63.20
29775;DHT22;16676;51.202;6.774;2024-01-30T17:33:53;20.60;64.60
29775;DHT22;16676;51.202;6.774;2024-01-30T17:37:55;20.60;65.30
29775;DHT22;16676;51.202;6.774;2024-01-30T17:41:57;20.60;66.10
29775;DHT22;16676;51.202;6.774;2024-01-30T17:46:00;20.60;66.70
29775;DHT22;16676;51.202;6.774;2024-01-30T17:50:02;20.60;67.60
29775;DHT22;16676;51.202;6.774;2024-01-30T17:54:04;20.70;65.00
29775;DHT22;16676;51.202;6.774;2024-01-30T17:58:06;20.70;64.50
29775;DHT22;16676;51.202;6.774;2024-01-30T18:02:09;20.60;65.20
29775;DHT22;16676;51.202;6.774;2024-01-30T18:06:13;20.60;67.00
29775;DHT22;16676;51.202;6.774;2024-01-30T18:10:16;20.60;67.80
29775;DHT22;16676;51.202;6.774;2024-01-30T18:14:19;20.50;68.30
29775;DHT22;16676;51.202;6.774;2024-01-30T18:18:24;20.50;68.50
29775;DHT22;16676;51.202;6.774;2024-01-30T18:22:27;20.60;70.00
29775;DHT22;16676;51.202;6.774;2024-01-30T18:26:28;20.50;69.50
29775;DHT22;16676;51.202;6.774;2024-01-30T18:30:31;20.60;66.80
29775;DHT22;16676;51.202;6.774;2024-01-30T18:34:34;20.70;64.80
29775;DHT22;16676;51.202;6.774;2024-01-30T18:38:36;20.60;63.80
29775;DHT22;16676;51.202;6.774;2024-01-30T18:42:38;20.50;63.60
29775;DHT22;16676;51.202;6.774;2024-01-30T18:46:40;20.40;62.90
29775;DHT22;16676;51.202;6.774;2024-01-30T18:50:43;20.40;62.60
29775;DHT22;16676;51.202;6.774;2024-01-30T18:54:45;20.40;62.70
29775;DHT22;16676;51.202;6.774;2024-01-30T18:58:47;20.30;62.00
29775;DHT22;16676;51.202;6.774;2024-01-30T19:02:49;20.30;62.30
29775;DHT22;16676;51.202;6.774;2024-01-30T19:06:52;20.20;62.00
29775;DHT22;16676;51.202;6.774;2024-01-30T19:10:54;20.20;62.20
29775;DHT22;16676;51.202;6.774;2024-01-30T19:14:56;20.20;62.00
29775;DHT22;16676;51.202;6.774;2024-01-30T19:18:59;20.20;62.10
29775;DHT22;16676;51.202;6.774;2024-01-30T19:23:02;20.20;63.80
29775;DHT22;16676;51.202;6.774;2024-01-30T19:27:04;20.20;66.50
29775;DHT22;16676;51.202;6.774;2024-01-30T19:31:06;20.20;66.80
29775;DHT22;16676;51.202;6.774;2024-01-30T19:35:09;20.10;68.70
29775;DHT22;16676;51.202;6.774;2024-01-30T19:39:12;20.10;69.60
29775;DHT22;16676;51.202;6.774;2024-01-30T19:43:14;20.10;70.80
29775;DHT22;16676;51.202;6.774;2024-01-30T19:47:16;20.20;69.50
29775;DHT22;16676;51.202;6.774;2024-01-30T19:51:20;20.20;70.80
29775;DHT22;16676;51.202;6.774;2024-01-30T19:55:23;20.20;69.20
29775;DHT22;16676;51.202;6.774;2024-01-30T19:59:26;20.30;69.60
29775;DHT22;16676;51.202;6.774;2024-01-30T20:03:28;20.30;70.00
29775;DHT22;16676;51.202;6.774;2024-01-30T20:07:30;20.20;70.20
29775;DHT22;16676;51.202;6.774;2024-01-30T20:11:33;20.20;69.10
29775;DHT22;16676;51.202;6.774;2024-01-30T20:15:35;20.20;68.90
29775;DHT22;16676;51.202;6.774;2024-01-30T20:19:37;20.20;69.80
29775;DHT22;16676;51.202;6.774;2024-01-30T20:23:39;20.20;70.10
29775;DHT22;16676;51.202;6.774;2024-01-30T20:27:42;20.20;68.80
29775;DHT22;16676;51.202;6.774;2024-01-30T20:31:45;20.10;69.30
29775;DHT22;16676;51.202;6.774;2024-01-30T20:35:47;20.10;69.00
29775;DHT22;16676;51.202;6.774;2024-01-30T20:39:49;20.10;69.40
29775;DHT22;16676;51.202;6.774;2024-01-30T20:43:52;20.10;68.80
29775;DHT22;16676;51.202;6.774;2024-01-30T20:47:54;20.10;68.90
29775;DHT22;16676;51.202;6.774;2024-01-30T20:51:56;20.10;68.80
29775;DHT22;16676;51.202;6.774;2024-01-30T20:55:58;20.10;68.70
29775;DHT22;16676;51.202;6.774;2024-01-30T21:00:01;20.10;68.20
29775;DHT22;16676;51.202;6.774;2024-01-30T21:04:05;20.10;69.30
29775;DHT22;16676;51.202;6.774;2024-01-30T21:08:07;20.10;68.50
29775;DHT22;16676;51.202;6.774;2024-01-30T21:12:09;20.00;69.70
29775;DHT22;16676;51.202;6.774;2024-01-30T21:16:12;20.00;70.10
29775;DHT22;16676;51.202;6.774;2024-01-30T21:20:14;19.90;70.40
29775;DHT22;16676;51.202;6.774;2024-01-30T21:24:16;19.90;71.20
29775;DHT22;16676;51.202;6.774;2024-01-30T21:28:18;19.90;71.40
29775;DHT22;16676;51.202;6.774;2024-01-30T21:32:22;19.90;70.50
29775;DHT22;16676;51.202;6.774;2024-01-30T21:36:24;19.80;71.30
29775;DHT22;16676;51.202;6.774;2024-01-30T21:40:26;19.80;71.40
29775;DHT22;16676;51.202;6.774;2024-01-30T21:44:27;19.80;71.30
29775;DHT22;16676;51.202;6.774;2024-01-30T21:48:31;19.80;71.40
29775;DHT22;16676;51.202;6.774;2024-01-30T21:52:33;19.80;71.20
29775;DHT22;16676;51.202;6.774;2024-01-30T21:56:35;19.80;71.50
29775;DHT22;16676;51.202;6.774;2024-01-30T22:00:38;19.80;71.50
29775;DHT22;16676;51.202;6.774;2024-01-30T22:04:41;19.70;71.40
29775;DHT22;16676;51.202;6.774;2024-01-30T22:08:44;19.70;71.50
29775;DHT22;16676;51.202;6.774;2024-01-30T22:12:46;19.70;71.40
29775;DHT22;16676;51.202;6.774;2024-01-30T22:16:48;19.70;71.60
29775;DHT22;16676;51.202;6.774;2024-01-30T22:20:51;19.80;71.60
29775;DHT22;16676;51.202;6.774;2024-01-30T22:24:53;19.70;71.50
29775;DHT22;16676;51.202;6.774;2024-01-30T22:28:55;19.70;71.20
29775;DHT22;16676;51.202;6.774;2024-01-30T22:32:58;19.70;71.40
29775;DHT22;16676;51.202;6.774;2024-01-30T22:37:01;19.70;71.30
29775;DHT22;16676;51.202;6.774;2024-01-30T22:41:03;19.70;71.60
29775;DHT22;16676;51.202;6.774;2024-01-30T22:45:06;19.70;71.00
29775;DHT22;16676;51.202;6.774;2024-01-30T22:49:08;19.70;71.80
29775;DHT22;16676;51.202;6.774;2024-01-30T22:53:11;19.60;71.80
29775;DHT22;16676;51.202;6.774;2024-01-30T22:57:13;19.70;70.90
29775;DHT22;16676;51.202;6.774;2024-01-30T23:01:16;19.70;70.60
29775;DHT22;16676;51.202;6.774;2024-01-30T23:05:18;19.70;70.50
29775;DHT22;16676;51.202;6.774;2024-01-30T23:09:21;19.70;71.10
29775;DHT22;16676;51.202;6.774;2024-01-30T23:13:23;19.70;70.80
29775;DHT22;16676;51.202;6.774;2024-01-30T23:17:25;19.70;71.10
29775;DHT22;16676;51.202;6.774;2024-01-30T23:21:27;19.70;70.30
29775;DHT22;16676;51.202;6.774;2024-01-30T23:25:31;19.70;70.60
29775;DHT22;16676;51.202;6.774;2024-01-30T23:29:33;19.60;70.80
29775;DHT22;16676;51.202;6.774;2024-01-30T23:33:34;19.60;71.00
29775;DHT22;16676;51.202;6.774;2024-01-30T23:37:36;19.60;70.40
29775;DHT22;16676;51.202;6.774;2024-01-30T23:41:40;19.60;70.60
29775;DHT22;16676;51.202;6.774;2024-01-30T23:45:42;19.60;70.20
29775;DHT22;16676;51.202;6.774;2024-01-30T23:49:44;19.70;70.40
29775;DHT22;16676;51.202;6.774;2024-01-30T23:53:47;19.60;70.20
29775;DHT22;16676;51.202;6.774;2024-01-30T23:57:50;19.60;70.10
